createdAt,value
2018-12-13T00:01:26.902Z,99.90
2018-12-13T00:04:07.253Z,99.90
2018-12-13T00:06:51.231Z,99.90
2018-12-13T00:09:31.385Z,99.90
2018-12-13T00:12:16.008Z,99.90
2018-12-13T00:15:06.191Z,99.90
2018-12-13T00:17:45.721Z,99.90
2018-12-13T00:20:26.676Z,99.90
2018-12-13T00:23:00.124Z,99.90
2018-12-13T00:25:29.846Z,99.90
2018-12-13T00:37:12.619Z,99.90
2018-12-13T00:39:53.700Z,99.90
2018-12-13T00:42:33.471Z,99.90
2018-12-13T00:51:12.497Z,99.90
2018-12-13T00:56:51.533Z,99.90
2018-12-13T00:59:33.931Z,99.90
2018-12-13T01:02:13.861Z,99.90
2018-12-13T01:04:48.553Z,99.90
2018-12-13T01:07:22.145Z,99.90
2018-12-13T01:10:02.210Z,99.90
2018-12-13T01:12:52.564Z,99.90
2018-12-13T01:15:39.043Z,99.90
2018-12-13T01:18:19.179Z,99.90
2018-12-13T01:21:03.604Z,99.90
2018-12-13T01:23:48.013Z,99.90
2018-12-13T01:26:21.007Z,99.90
2018-12-13T01:31:49.693Z,99.90
2018-12-13T01:34:29.532Z,99.90
2018-12-13T01:37:09.320Z,99.90
2018-12-13T01:39:52.859Z,99.90
2018-12-13T01:42:34.766Z,99.90
2018-12-13T01:45:12.025Z,99.90
2018-12-13T01:47:43.345Z,99.90
2018-12-13T01:50:16.523Z,99.90
2018-12-13T01:52:56.921Z,99.90
2018-12-13T01:55:27.982Z,99.90
2018-12-13T01:58:14.433Z,99.90
2018-12-13T02:00:54.705Z,99.90
2018-12-13T02:06:18.620Z,99.90
2018-12-13T02:08:49.581Z,99.90
2018-12-13T02:14:30.328Z,99.90
2018-12-13T02:17:21.079Z,99.90
2018-12-13T02:23:11.346Z,99.90
2018-12-13T02:25:41.066Z,99.90
2018-12-13T02:28:12.753Z,99.90
2018-12-13T02:30:53.182Z,99.90
2018-12-13T02:33:33.145Z,99.90
2018-12-13T02:36:04.130Z,99.90
2018-12-13T02:41:38.492Z,99.90
2018-12-13T02:44:18.103Z,99.90
2018-12-13T02:46:48.975Z,99.90
2018-12-13T02:49:19.834Z,99.90
2018-12-13T02:52:05.998Z,99.90
2018-12-13T02:57:38.904Z,99.90
2018-12-13T03:00:20.800Z,99.90
2018-12-13T03:03:11.121Z,99.90
2018-12-13T03:05:46.133Z,99.90
2018-12-13T03:08:17.931Z,99.90
2018-12-13T03:10:49.819Z,99.90
2018-12-13T03:13:37.722Z,99.90
2018-12-13T03:19:03.253Z,99.90
2018-12-13T03:21:34.163Z,99.90
2018-12-13T03:24:07.665Z,99.90
2018-12-13T03:26:37.133Z,99.90
2018-12-13T03:29:12.375Z,99.90
2018-12-13T03:34:57.418Z,99.90
2018-12-13T03:37:37.431Z,99.90
2018-12-13T03:40:19.033Z,99.90
2018-12-13T03:42:56.410Z,99.90
2018-12-13T03:45:27.966Z,99.90
2018-12-13T03:48:07.503Z,99.90
2018-12-13T03:50:45.135Z,99.90
2018-12-13T03:53:15.101Z,99.90
2018-12-13T03:55:44.434Z,99.90
2018-12-13T03:58:26.011Z,99.90
2018-12-13T04:00:59.437Z,99.90
2018-12-13T04:03:38.835Z,99.90
2018-12-13T04:06:12.243Z,99.90
2018-12-13T04:09:00.596Z,99.90
2018-12-13T04:11:34.444Z,99.90
2018-12-13T04:14:13.887Z,99.90
2018-12-13T04:16:53.829Z,99.90
2018-12-13T04:19:24.693Z,99.90
2018-12-13T04:25:01.191Z,99.90
2018-12-13T04:27:34.273Z,99.90
2018-12-13T04:30:07.974Z,99.90
2018-12-13T04:32:49.439Z,99.90
2018-12-13T04:35:23.328Z,99.90
2018-12-13T04:37:58.012Z,99.90
2018-12-13T04:40:45.676Z,99.90
2018-12-13T04:43:23.399Z,99.90
2018-12-13T04:45:56.507Z,99.90
2018-12-13T04:48:30.502Z,99.90
2018-12-13T04:51:10.369Z,99.90
2018-12-13T04:53:44.192Z,99.90
2018-12-13T04:56:15.152Z,99.90
2018-12-13T05:01:48.587Z,99.90
2018-12-13T05:04:36.656Z,99.90
2018-12-13T05:07:07.456Z,99.90
2018-12-13T05:12:47.870Z,99.90
2018-12-13T05:15:29.657Z,99.90
2018-12-13T05:18:09.192Z,99.90
2018-12-13T05:20:42.348Z,99.90
2018-12-13T05:23:23.865Z,99.90
2018-12-13T05:26:06.342Z,99.90
2018-12-13T05:28:46.412Z,99.90
2018-12-13T05:31:21.993Z,99.90
2018-12-13T05:33:53.216Z,99.90
2018-12-13T05:36:39.771Z,99.90
2018-12-13T05:39:24.426Z,99.90
2018-12-13T05:41:57.846Z,99.90
2018-12-13T05:44:31.420Z,99.90
2018-12-13T05:47:02.145Z,99.90
2018-12-13T05:49:31.791Z,99.90
2018-12-13T05:52:05.365Z,99.90
2018-12-13T05:54:53.436Z,99.90
2018-12-13T06:00:23.095Z,99.90
2018-12-13T06:06:06.439Z,99.90
2018-12-13T06:08:46.809Z,99.90
2018-12-13T06:11:27.222Z,99.90
2018-12-13T06:14:00.872Z,99.90
2018-12-13T06:16:48.353Z,99.90
2018-12-13T06:19:28.535Z,99.90
2018-12-13T06:22:02.439Z,99.90
2018-12-13T06:27:44.959Z,99.90
2018-12-13T06:30:16.534Z,99.90
2018-12-13T06:32:56.507Z,99.90
2018-12-13T06:41:21.657Z,99.90
2018-12-13T06:44:02.061Z,99.90
2018-12-13T06:46:33.688Z,99.90
2018-12-13T06:49:14.162Z,99.90
2018-12-13T06:52:01.903Z,99.90
2018-12-13T06:54:41.398Z,99.90
2018-12-13T06:57:22.037Z,99.90
2018-12-13T07:00:02.437Z,99.90
2018-12-13T07:05:36.407Z,99.90
2018-12-13T07:08:16.507Z,99.90
2018-12-13T07:10:56.801Z,99.90
2018-12-13T07:13:28.660Z,99.90
2018-12-13T07:16:02.283Z,99.90
2018-12-13T07:18:42.520Z,99.90
2018-12-13T07:21:29.277Z,99.90
2018-12-13T07:24:02.343Z,99.90
2018-12-13T07:26:42.359Z,99.90
2018-12-13T07:29:16.559Z,99.90
2018-12-13T07:35:09.350Z,99.90
2018-12-13T07:37:43.779Z,99.90
2018-12-13T07:40:15.057Z,99.90
2018-12-13T07:42:56.627Z,99.90
2018-12-13T07:45:28.132Z,99.90
2018-12-13T07:47:59.223Z,99.90
2018-12-13T07:50:39.254Z,99.90
2018-12-13T07:53:19.816Z,99.90
2018-12-13T07:55:59.936Z,99.90
2018-12-13T07:58:29.535Z,99.90
2018-12-13T08:01:00.444Z,99.90
2018-12-13T08:03:39.348Z,99.90
2018-12-13T08:06:19.175Z,99.90
2018-12-13T08:08:50.766Z,99.90
2018-12-13T08:11:22.133Z,99.90
2018-12-13T08:14:10.148Z,99.90
2018-12-13T08:16:41.299Z,99.90
2018-12-13T08:19:12.631Z,99.90
2018-12-13T08:21:46.436Z,99.90
2018-12-13T08:24:26.241Z,99.90
2018-12-13T08:26:57.079Z,99.90
2018-12-13T08:32:37.593Z,99.90
2018-12-13T08:35:17.351Z,99.90
2018-12-13T08:37:51.207Z,99.90
2018-12-13T08:40:23.307Z,99.90
2018-12-13T08:43:00.504Z,99.90
2018-12-13T08:45:40.677Z,99.90
2018-12-13T08:48:14.624Z,99.90
2018-12-13T08:50:47.765Z,99.00
2018-12-13T08:53:22.246Z,98.20
2018-12-13T08:55:53.318Z,96.30
2018-12-13T08:58:33.495Z,96.50
2018-12-13T09:04:07.787Z,96.60
2018-12-13T09:06:48.223Z,96.40
2018-12-13T09:09:31.752Z,96.80
2018-12-13T09:12:22.524Z,97.80
2018-12-13T09:14:56.045Z,98.30
2018-12-13T09:17:35.739Z,96.70
2018-12-13T09:20:09.542Z,95.30
2018-12-13T09:22:57.521Z,96.40
2018-12-13T09:25:37.470Z,94.30
2018-12-13T09:28:09.160Z,93.50
2018-12-13T09:30:40.715Z,94.40
2018-12-13T09:33:12.185Z,94.80
2018-12-13T09:35:52.648Z,95.30
2018-12-13T09:38:27.435Z,95.80
2018-12-13T09:44:04.265Z,96.70
2018-12-13T09:46:35.359Z,95.30
2018-12-13T09:49:06.665Z,96.10
2018-12-13T09:51:38.273Z,97.10
2018-12-13T09:54:09.712Z,96.80
2018-12-13T09:56:43.245Z,95.80
2018-12-13T09:59:33.405Z,94.50
2018-12-13T10:02:06.770Z,96.30
2018-12-13T10:04:40.271Z,93.60
2018-12-13T10:07:11.061Z,91.80
2018-12-13T10:09:51.038Z,90.70
2018-12-13T10:12:39.871Z,87.50
2018-12-13T10:15:09.358Z,89.20
2018-12-13T10:17:40.785Z,90.10
2018-12-13T10:20:14.579Z,90.30
2018-12-13T10:22:54.999Z,91.60
2018-12-13T10:25:26.559Z,91.10
2018-12-13T10:28:07.026Z,89.80
2018-12-13T10:30:47.395Z,87.60
2018-12-13T10:33:27.859Z,86.70
2018-12-13T10:36:01.829Z,81.00
2018-12-13T10:38:35.408Z,77.60
2018-12-13T10:41:06.518Z,79.10
2018-12-13T10:43:40.473Z,81.10
2018-12-13T10:46:14.040Z,82.80
2018-12-13T10:48:44.976Z,87.50
2018-12-13T10:51:16.292Z,85.40
2018-12-13T10:53:46.953Z,82.50
2018-12-13T10:56:26.829Z,84.00
2018-12-13T10:58:58.307Z,83.30
2018-12-13T11:01:49.193Z,83.30
2018-12-13T11:07:10.779Z,83.00
2018-12-13T11:09:42.046Z,80.90
2018-12-13T11:12:16.781Z,76.90
2018-12-13T11:14:50.166Z,75.70
2018-12-13T11:17:25.874Z,76.70
2018-12-13T11:19:59.623Z,75.00
2018-12-13T11:22:32.850Z,77.40
2018-12-13T11:25:13.107Z,76.80
2018-12-13T11:27:52.780Z,78.40
2018-12-13T11:30:24.356Z,79.30
2018-12-13T11:33:04.784Z,79.40
2018-12-13T11:35:48.816Z,78.50
2018-12-13T11:38:28.591Z,78.10
2018-12-13T11:41:08.395Z,79.20
2018-12-13T11:43:48.246Z,82.30
2018-12-13T11:46:19.304Z,84.00
2018-12-13T11:48:58.924Z,84.70
2018-12-13T11:51:38.951Z,84.20
2018-12-13T11:54:19.854Z,82.00
2018-12-13T11:56:50.770Z,86.10
2018-12-13T11:59:30.521Z,86.20
2018-12-13T12:02:11.149Z,88.10
2018-12-13T12:04:44.604Z,90.30
2018-12-13T12:07:24.813Z,90.60
2018-12-13T12:10:04.756Z,90.70
2018-12-13T12:12:38.167Z,91.70
2018-12-13T12:15:18.502Z,90.80
2018-12-13T12:17:58.225Z,92.00
2018-12-13T12:20:38.294Z,91.50
2018-12-13T12:23:19.172Z,91.70
2018-12-13T12:26:01.576Z,91.30
2018-12-13T12:28:33.231Z,90.80
2018-12-13T12:31:06.670Z,91.00
2018-12-13T12:33:46.576Z,89.10
2018-12-13T12:36:17.406Z,84.80
2018-12-13T12:41:55.921Z,83.80
2018-12-13T12:47:35.841Z,84.60
2018-12-13T12:50:16.346Z,85.00
2018-12-13T12:52:56.221Z,86.70
2018-12-13T12:55:29.770Z,87.70
2018-12-13T12:58:03.605Z,88.00
2018-12-13T13:00:35.085Z,85.90
2018-12-13T13:03:09.427Z,84.70
2018-12-13T13:05:47.241Z,82.40
2018-12-13T13:08:27.770Z,81.50
2018-12-13T13:10:59.473Z,82.70
2018-12-13T13:13:39.429Z,83.60
2018-12-13T13:16:10.843Z,82.60
2018-12-13T13:18:42.309Z,84.40
2018-12-13T13:21:15.720Z,83.70
2018-12-13T13:23:55.963Z,81.70
2018-12-13T13:26:34.501Z,82.70
2018-12-13T13:29:08.314Z,81.40
2018-12-13T13:31:39.695Z,82.10
2018-12-13T13:34:19.985Z,80.80
2018-12-13T13:36:50.791Z,80.10
2018-12-13T13:39:31.436Z,77.50
2018-12-13T13:42:12.359Z,76.30
2018-12-13T13:47:52.550Z,78.00
2018-12-13T13:50:21.926Z,77.50
2018-12-13T13:55:54.870Z,79.60
2018-12-13T13:58:42.539Z,78.40
2018-12-13T14:04:22.928Z,76.30
2018-12-13T14:06:55.211Z,76.60
2018-12-13T14:09:45.546Z,79.10
2018-12-13T14:12:20.367Z,78.20
2018-12-13T14:15:00.739Z,80.70
2018-12-13T14:17:44.386Z,81.80
2018-12-13T14:20:15.817Z,81.90
2018-12-13T14:22:45.703Z,81.80
2018-12-13T14:25:26.129Z,80.30
2018-12-13T14:27:58.630Z,79.00
2018-12-13T14:30:30.689Z,80.60
2018-12-13T14:33:00.313Z,81.20
2018-12-13T14:35:48.451Z,81.00
2018-12-13T14:38:28.867Z,81.50
2018-12-13T14:41:08.890Z,82.60
2018-12-13T14:43:49.493Z,83.40
2018-12-13T14:46:29.429Z,79.80
2018-12-13T14:49:10.429Z,82.10
2018-12-13T14:52:01.227Z,83.90
2018-12-13T14:54:49.711Z,83.00
2018-12-13T14:57:37.632Z,83.20
2018-12-13T15:00:12.726Z,83.80
2018-12-13T15:02:53.694Z,84.20
2018-12-13T15:05:27.842Z,82.80
2018-12-13T15:07:59.089Z,84.60
2018-12-13T15:10:39.375Z,85.10
2018-12-13T15:13:10.234Z,83.50
2018-12-13T15:15:45.109Z,86.40
2018-12-13T15:18:27.346Z,85.50
2018-12-13T15:21:08.119Z,84.90
2018-12-13T15:23:41.992Z,86.20
2018-12-13T15:26:22.441Z,86.20
2018-12-13T15:35:15.351Z,90.40
2018-12-13T15:37:46.934Z,90.20
2018-12-13T15:40:26.819Z,90.20
2018-12-13T15:43:06.763Z,90.20
2018-12-13T15:45:37.933Z,90.80
2018-12-13T15:48:08.745Z,90.50
2018-12-13T15:50:41.981Z,91.00
2018-12-13T15:53:22.350Z,90.90
2018-12-13T15:55:55.914Z,91.10
2018-12-13T15:58:29.866Z,91.90
2018-12-13T16:01:00.534Z,91.40
2018-12-13T16:03:31.380Z,91.50
2018-12-13T16:06:04.912Z,91.60
2018-12-13T16:08:38.696Z,91.20
2018-12-13T16:11:08.698Z,91.70
2018-12-13T16:13:48.754Z,91.80
2018-12-13T16:16:28.671Z,91.80
2018-12-13T16:19:02.374Z,91.70
2018-12-13T16:21:49.976Z,91.70
2018-12-13T16:24:40.504Z,92.00
2018-12-13T16:27:14.283Z,91.70
2018-12-13T16:29:54.057Z,92.40
2018-12-13T16:32:34.325Z,92.20
2018-12-13T16:35:05.646Z,91.40
2018-12-13T16:37:36.144Z,91.40
2018-12-13T16:40:24.276Z,91.40
2018-12-13T16:45:52.320Z,91.00
2018-12-13T16:48:33.295Z,89.70
2018-12-13T16:51:12.858Z,91.30
2018-12-13T16:53:44.033Z,90.60
2018-12-13T16:59:17.254Z,91.40
2018-12-13T17:01:57.431Z,92.40
2018-12-13T17:10:39.347Z,91.20
2018-12-13T17:13:13.096Z,91.30
2018-12-13T17:15:57.491Z,91.40
2018-12-13T17:18:38.991Z,91.10
2018-12-13T17:21:18.905Z,91.30
2018-12-13T17:23:58.497Z,90.90
2018-12-13T17:26:38.322Z,91.30
2018-12-13T17:29:17.852Z,90.80
2018-12-13T17:31:51.006Z,92.20
2018-12-13T17:34:28.829Z,92.20
2018-12-13T17:37:03.897Z,92.00
2018-12-13T17:39:44.891Z,91.80
2018-12-13T17:42:25.315Z,92.20
2018-12-13T17:44:56.179Z,93.20
2018-12-13T17:47:36.102Z,93.40
2018-12-13T17:53:14.557Z,93.00
2018-12-13T17:55:54.870Z,93.30
2018-12-13T18:01:31.193Z,93.70
2018-12-13T18:04:11.666Z,93.20
2018-12-13T18:06:48.931Z,93.30
2018-12-13T18:09:29.357Z,93.20
2018-12-13T18:12:09.313Z,93.00
2018-12-13T18:14:50.155Z,92.90
2018-12-13T18:17:23.630Z,92.20
2018-12-13T18:19:55.066Z,92.80
2018-12-13T18:31:45.266Z,92.60
2018-12-13T18:34:25.437Z,93.00
2018-12-13T18:36:56.222Z,92.30
2018-12-13T18:39:35.962Z,92.20
2018-12-13T18:42:15.911Z,91.80
2018-12-13T18:47:41.750Z,92.70
2018-12-13T18:50:15.638Z,92.50
2018-12-13T18:52:46.263Z,92.50
2018-12-13T18:55:31.063Z,92.20
2018-12-13T18:58:04.470Z,91.20
2018-12-13T19:00:52.222Z,90.20
2018-12-13T19:03:26.036Z,89.00
2018-12-13T19:06:06.338Z,88.90
2018-12-13T19:08:39.722Z,88.30
2018-12-13T19:11:20.161Z,89.20
2018-12-13T19:13:55.510Z,90.10
2018-12-13T19:16:28.998Z,90.60
2018-12-13T19:19:02.624Z,90.60
2018-12-13T19:21:34.074Z,90.70
2018-12-13T19:24:07.194Z,91.30
2018-12-13T19:26:36.673Z,91.40
2018-12-13T19:29:09.730Z,92.00
2018-12-13T19:31:57.465Z,92.70
2018-12-13T19:44:39.418Z,93.90
2018-12-13T19:47:10.082Z,94.20
2018-12-13T19:49:48.068Z,94.50
2018-12-13T19:52:21.930Z,95.50
2018-12-13T19:54:55.730Z,95.50
2018-12-13T19:57:36.023Z,95.80
2018-12-13T20:00:09.575Z,95.60
2018-12-13T20:02:49.823Z,96.00
2018-12-13T20:05:20.884Z,96.20
2018-12-13T20:07:52.130Z,96.90
2018-12-13T20:10:25.197Z,97.30
2018-12-13T20:12:58.997Z,97.00
2018-12-13T20:15:33.389Z,97.10
2018-12-13T20:18:13.277Z,97.00
2018-12-13T20:20:46.508Z,97.00
2018-12-13T20:23:26.924Z,96.20
2018-12-13T20:26:00.114Z,96.20
2018-12-13T20:28:31.754Z,96.00
2018-12-13T20:31:19.876Z,95.70
2018-12-13T20:34:00.345Z,95.80
2018-12-13T20:36:31.168Z,95.70
2018-12-13T20:39:11.138Z,96.20
2018-12-13T20:41:59.320Z,98.20
2018-12-13T20:44:33.470Z,97.50
2018-12-13T20:47:13.839Z,97.60
2018-12-13T20:49:53.597Z,97.50
2018-12-13T20:52:33.416Z,98.00
2018-12-13T20:55:04.741Z,98.00
2018-12-13T20:57:45.037Z,98.20
2018-12-13T21:00:16.212Z,97.70
2018-12-13T21:02:48.243Z,97.70
2018-12-13T21:05:20.050Z,97.70
2018-12-13T21:07:58.456Z,97.50
2018-12-13T21:10:42.688Z,97.60
2018-12-13T21:13:23.129Z,98.20
2018-12-13T21:15:53.812Z,98.50
2018-12-13T21:18:42.055Z,99.00
2018-12-13T21:21:13.555Z,98.40
2018-12-13T21:23:53.318Z,98.10
2018-12-13T21:26:24.218Z,98.70
2018-12-13T21:29:02.995Z,97.50
2018-12-13T21:31:49.077Z,96.30
2018-12-13T21:34:18.739Z,95.30
2018-12-13T21:36:56.830Z,96.10
2018-12-13T21:39:37.265Z,96.80
2018-12-13T21:42:17.086Z,97.00
2018-12-13T21:44:54.518Z,97.70
2018-12-13T21:47:34.990Z,97.70
2018-12-13T21:50:07.287Z,97.70
2018-12-13T21:52:45.693Z,98.60
2018-12-13T21:55:26.578Z,99.40
2018-12-13T21:58:04.167Z,98.60
2018-12-13T22:03:44.921Z,98.60
2018-12-13T22:06:18.555Z,98.20
2018-12-13T22:08:48.039Z,97.80
2018-12-13T22:11:27.770Z,97.90
2018-12-13T22:13:58.910Z,98.60
2018-12-13T22:19:38.095Z,98.70
2018-12-13T22:22:18.013Z,98.90
2018-12-13T22:24:55.506Z,98.90
2018-12-13T22:27:33.334Z,98.40
2018-12-13T22:30:13.753Z,98.40
2018-12-13T22:32:50.933Z,98.50
2018-12-13T22:35:22.610Z,98.70
2018-12-13T22:38:00.087Z,98.60
2018-12-13T22:40:33.893Z,99.30
2018-12-13T22:43:20.423Z,99.30
2018-12-13T22:48:40.489Z,98.90
2018-12-13T22:51:12.389Z,99.60
2018-12-13T22:53:48.736Z,99.90
2018-12-13T22:56:19.718Z,99.00
2018-12-13T22:58:51.127Z,98.70
2018-12-13T23:01:24.967Z,98.80
2018-12-13T23:03:58.678Z,98.40
2018-12-13T23:06:31.435Z,96.70
2018-12-13T23:09:04.243Z,96.00
2018-12-13T23:11:35.345Z,95.80
2018-12-13T23:14:06.958Z,95.00
2018-12-13T23:16:38.568Z,95.40
2018-12-13T23:19:10.344Z,96.00
2018-12-13T23:21:41.114Z,96.20
2018-12-13T23:24:10.287Z,96.00
2018-12-13T23:26:44.278Z,96.80
2018-12-13T23:29:15.467Z,97.00
2018-12-13T23:31:49.136Z,97.50
2018-12-13T23:34:20.277Z,97.30
2018-12-13T23:36:52.722Z,97.00
2018-12-13T23:39:24.106Z,96.20
2018-12-13T23:41:57.608Z,95.50
2018-12-13T23:44:37.558Z,96.30
2018-12-13T23:47:09.114Z,95.70
2018-12-13T23:49:40.890Z,95.70
2018-12-13T23:52:12.376Z,94.50
2018-12-13T23:55:03.316Z,94.20
2018-12-13T23:57:48.293Z,94.40
